createdAt,value
2018-07-01T00:01:39.097Z,30.14
2018-07-01T00:04:07.483Z,30.28
2018-07-01T00:06:35.835Z,29.31
2018-07-01T00:09:06.250Z,30.90
2018-07-01T00:11:34.701Z,30.30
2018-07-01T00:14:03.028Z,30.29
2018-07-01T00:16:31.395Z,30.58
2018-07-01T00:18:59.724Z,31.39
2018-07-01T00:21:28.094Z,31.12
2018-07-01T00:23:56.477Z,31.06
2018-07-01T00:26:24.822Z,29.69
2018-07-01T00:28:53.195Z,30.09
2018-07-01T00:31:21.497Z,30.39
2018-07-01T00:33:49.826Z,30.82
2018-07-01T00:36:18.163Z,30.81
2018-07-01T00:38:46.515Z,31.37
2018-07-01T00:41:14.891Z,29.27
2018-07-01T00:43:43.411Z,31.08
2018-07-01T00:46:11.775Z,31.52
2018-07-01T00:48:40.099Z,30.67
2018-07-01T00:51:08.582Z,31.47
2018-07-01T00:53:36.963Z,30.66
2018-07-01T00:56:05.395Z,30.96
2018-07-01T00:58:33.731Z,31.28
2018-07-01T01:01:02.095Z,32.06
2018-07-01T01:03:36.944Z,32.09
2018-07-01T01:06:05.594Z,32.33
2018-07-01T01:08:33.940Z,32.15
2018-07-01T01:11:02.318Z,31.08
2018-07-01T01:13:30.688Z,31.95
2018-07-01T01:15:59.088Z,31.50
2018-07-01T01:18:27.451Z,32.34
2018-07-01T01:20:55.740Z,32.55
2018-07-01T01:23:24.091Z,32.37
2018-07-01T01:25:52.457Z,31.45
2018-07-01T01:28:20.812Z,31.75
2018-07-01T01:30:49.251Z,31.96
2018-07-01T01:33:17.644Z,31.77
2018-07-01T01:35:47.372Z,31.90
2018-07-01T01:38:15.711Z,32.07
2018-07-01T01:41:46.897Z,32.83
2018-07-01T01:44:19.043Z,32.65
2018-07-01T01:46:55.644Z,33.07
2018-07-01T01:49:28.645Z,33.99
2018-07-01T01:52:06.455Z,33.94
2018-07-01T01:55:12.680Z,33.45
2018-07-01T01:58:00.088Z,32.55
2018-07-01T02:00:32.383Z,32.55
2018-07-01T02:03:38.403Z,33.55
2018-07-01T02:06:10.641Z,33.84
2018-07-01T02:08:42.920Z,33.85
2018-07-01T02:11:11.316Z,33.19
2018-07-01T02:13:41.911Z,33.68
2018-07-01T02:16:14.492Z,32.86
2018-07-01T02:18:42.817Z,32.94
2018-07-01T02:21:11.210Z,33.85
2018-07-01T02:23:43.211Z,33.84
2018-07-01T02:26:11.531Z,33.48
2018-07-01T02:28:39.929Z,33.68
2018-07-01T02:31:08.315Z,33.85
2018-07-01T02:33:36.636Z,33.01
2018-07-01T02:36:05.147Z,34.15
2018-07-01T02:38:33.489Z,34.34
2018-07-01T02:41:01.795Z,33.58
2018-07-01T02:43:30.148Z,32.75
2018-07-01T02:45:58.482Z,34.30
2018-07-01T02:48:26.801Z,34.06
2018-07-01T02:50:55.149Z,34.32
2018-07-01T02:53:23.456Z,34.08
2018-07-01T02:55:51.807Z,34.12
2018-07-01T02:58:20.144Z,35.23
2018-07-01T03:00:48.493Z,34.46
2018-07-01T03:03:16.840Z,35.16
2018-07-01T03:05:45.136Z,35.82
2018-07-01T03:08:13.463Z,35.54
2018-07-01T03:10:41.754Z,34.90
2018-07-01T03:13:10.101Z,35.69
2018-07-01T03:15:38.465Z,35.82
2018-07-01T03:18:06.756Z,35.82
2018-07-01T03:20:35.094Z,34.76
2018-07-01T03:23:03.499Z,35.14
2018-07-01T03:25:31.828Z,36.24
2018-07-01T03:28:00.140Z,35.68
2018-07-01T03:30:28.499Z,35.52
2018-07-01T03:32:56.806Z,36.64
2018-07-01T03:35:25.112Z,36.36
2018-07-01T03:37:53.484Z,35.95
2018-07-01T03:40:21.908Z,36.00
2018-07-01T03:42:50.295Z,35.63
2018-07-01T03:45:18.636Z,35.09
2018-07-01T03:47:46.959Z,35.64
2018-07-01T03:50:15.355Z,36.10
2018-07-01T03:52:43.627Z,36.67
2018-07-01T03:55:13.588Z,36.65
2018-07-01T03:57:41.976Z,36.03
2018-07-01T04:00:10.227Z,36.49
2018-07-01T04:02:38.571Z,36.46
2018-07-01T04:05:06.947Z,37.23
2018-07-01T04:07:35.351Z,37.44
2018-07-01T04:10:03.741Z,36.71
2018-07-01T04:12:32.051Z,36.85
2018-07-01T04:15:00.384Z,37.83
2018-07-01T04:17:28.667Z,37.48
2018-07-01T04:19:57.060Z,37.11
2018-07-01T04:22:25.467Z,37.27
2018-07-01T04:24:53.819Z,37.67
2018-07-01T04:27:22.113Z,39.42
2018-07-01T04:29:50.447Z,38.61
2018-07-01T04:32:18.767Z,39.05
2018-07-01T04:34:47.039Z,37.82
2018-07-01T04:37:15.382Z,38.13
2018-07-01T04:39:43.715Z,38.56
2018-07-01T04:42:12.055Z,37.48
2018-07-01T04:44:40.367Z,38.15
2018-07-01T04:47:08.682Z,38.43
2018-07-01T04:49:37.028Z,37.91
2018-07-01T04:52:05.383Z,39.28
2018-07-01T04:54:33.700Z,39.04
2018-07-01T04:57:02.878Z,39.67
2018-07-01T04:59:31.207Z,38.71
2018-07-01T05:01:59.539Z,38.54
2018-07-01T05:04:27.856Z,37.95
2018-07-01T05:06:56.183Z,39.12
2018-07-01T05:09:24.497Z,38.68
2018-07-01T05:11:52.805Z,37.80
2018-07-01T05:14:21.135Z,37.43
2018-07-01T05:16:49.436Z,38.64
2018-07-01T05:19:17.773Z,38.79
2018-07-01T05:21:46.098Z,38.53
2018-07-01T05:24:14.456Z,37.79
2018-07-01T05:26:42.783Z,37.51
2018-07-01T05:29:11.100Z,38.35
2018-07-01T05:31:39.395Z,38.13
2018-07-01T05:34:07.746Z,38.23
2018-07-01T05:36:36.120Z,38.76
2018-07-01T05:39:06.874Z,38.24
2018-07-01T05:41:35.227Z,39.02
2018-07-01T05:44:03.623Z,39.68
2018-07-01T05:46:31.931Z,40.38
2018-07-01T05:49:00.263Z,38.15
2018-07-01T05:51:28.640Z,39.03
2018-07-01T05:53:56.989Z,39.58
2018-07-01T05:56:25.360Z,39.24
2018-07-01T05:58:53.731Z,38.16
2018-07-01T06:01:22.037Z,38.80
2018-07-01T06:03:50.359Z,39.06
2018-07-01T06:06:18.789Z,39.12
2018-07-01T06:08:47.207Z,38.37
2018-07-01T06:11:15.451Z,39.14
2018-07-01T06:13:43.782Z,38.80
2018-07-01T06:16:12.103Z,38.03
2018-07-01T06:18:40.483Z,38.45
2018-07-01T06:21:09.571Z,38.35
2018-07-01T06:23:37.930Z,37.17
2018-07-01T06:26:06.287Z,37.56
2018-07-01T06:28:34.618Z,37.88
2018-07-01T06:31:02.983Z,38.66
2018-07-01T06:33:31.303Z,40.03
2018-07-01T06:35:59.663Z,38.33
2018-07-01T06:38:28.015Z,38.45
2018-07-01T06:40:56.399Z,38.50
2018-07-01T06:43:24.683Z,37.69
2018-07-01T06:45:53.016Z,39.87
2018-07-01T06:48:21.375Z,40.21
2018-07-01T06:50:49.727Z,39.62
2018-07-01T06:53:18.088Z,41.11
2018-07-01T06:55:46.379Z,38.73
2018-07-01T06:58:14.747Z,40.71
2018-07-01T07:00:43.047Z,40.59
2018-07-01T07:03:11.423Z,40.64
2018-07-01T07:05:39.768Z,39.69
2018-07-01T07:08:08.132Z,39.22
2018-07-01T07:10:36.455Z,39.73
2018-07-01T07:13:04.754Z,39.53
2018-07-01T07:15:33.127Z,39.69
2018-07-01T07:18:02.167Z,39.39
2018-07-01T07:20:30.514Z,38.90
2018-07-01T07:22:58.855Z,36.83
2018-07-01T07:25:27.188Z,38.61
2018-07-01T07:27:55.522Z,38.74
2018-07-01T07:30:23.948Z,38.69
2018-07-01T07:32:52.340Z,36.12
2018-07-01T07:35:20.716Z,37.63
2018-07-01T07:37:49.679Z,38.12
2018-07-01T07:40:18.096Z,38.34
2018-07-01T07:42:46.488Z,38.63
2018-07-01T07:45:14.879Z,37.54
2018-07-01T07:47:43.224Z,38.13
2018-07-01T07:50:12.111Z,37.83
2018-07-01T07:52:40.611Z,37.08
2018-07-01T07:55:09.088Z,37.38
2018-07-01T07:57:37.483Z,39.14
2018-07-01T08:00:05.863Z,37.91
2018-07-01T08:02:34.239Z,38.09
2018-07-01T08:05:02.937Z,35.93
2018-07-01T08:07:31.311Z,37.01
2018-07-01T08:09:59.737Z,36.51
2018-07-01T08:12:28.052Z,35.75
2018-07-01T08:14:56.375Z,34.32
2018-07-01T08:17:24.760Z,35.74
2018-07-01T08:19:53.239Z,36.45
2018-07-01T08:22:21.647Z,35.93
2018-07-01T08:24:49.987Z,36.73
2018-07-01T08:27:18.367Z,36.08
2018-07-01T08:29:46.666Z,35.55
2018-07-01T08:32:15.343Z,35.71
2018-07-01T08:34:43.668Z,35.88
2018-07-01T08:37:12.026Z,36.03
2018-07-01T08:39:40.327Z,35.52
2018-07-01T08:42:20.431Z,36.22
2018-07-01T08:44:49.331Z,35.29
2018-07-01T08:47:17.775Z,34.85
2018-07-01T08:49:46.083Z,35.37
2018-07-01T08:52:14.915Z,34.53
2018-07-01T08:54:43.595Z,35.68
2018-07-01T08:57:12.502Z,35.47
2018-07-01T08:59:40.834Z,34.32
2018-07-01T09:02:09.251Z,32.31
2018-07-01T09:04:38.176Z,33.47
2018-07-01T09:07:06.699Z,33.40
2018-07-01T09:09:35.056Z,32.67
2018-07-01T09:12:03.391Z,34.56
2018-07-01T09:14:31.759Z,36.05
2018-07-01T09:17:00.142Z,37.25
2018-07-01T09:19:41.042Z,35.60
2018-07-01T09:22:09.687Z,36.46
2018-07-01T09:24:38.591Z,35.74
2018-07-01T09:27:07.011Z,36.43
2018-07-01T09:29:39.537Z,34.58
2018-07-01T09:32:08.466Z,35.82
2018-07-01T09:34:36.985Z,35.01
2018-07-01T09:37:05.333Z,35.42
2018-07-01T09:39:33.699Z,34.70
2018-07-01T09:42:02.022Z,35.33
2018-07-01T09:44:30.375Z,35.92
2018-07-01T09:46:58.827Z,36.24
2018-07-01T09:49:27.165Z,36.51
2018-07-01T09:51:55.583Z,34.71
2018-07-01T09:54:23.899Z,34.91
2018-07-01T09:56:53.628Z,36.41
2018-07-01T09:59:21.992Z,35.62
2018-07-01T10:01:50.391Z,35.26
2018-07-01T10:04:19.554Z,34.71
2018-07-01T10:06:48.011Z,34.55
2018-07-01T10:09:16.353Z,35.62
2018-07-01T10:11:44.786Z,34.30
2018-07-01T10:14:13.196Z,33.77
2018-07-01T10:16:41.565Z,34.23
2018-07-01T10:19:10.013Z,33.22
2018-07-01T10:21:38.536Z,34.11
2018-07-01T10:24:06.960Z,33.17
2018-07-01T10:26:35.449Z,31.38
2018-07-01T10:29:13.407Z,32.33
2018-07-01T10:31:42.916Z,33.26
2018-07-01T10:34:12.303Z,32.87
2018-07-01T10:36:40.796Z,31.94
2018-07-01T10:39:11.642Z,33.43
2018-07-01T10:41:40.027Z,32.63
2018-07-01T10:44:08.403Z,33.71
2018-07-01T10:46:36.863Z,32.46
2018-07-01T10:49:05.410Z,33.56
2018-07-01T10:51:33.839Z,32.86
2018-07-01T10:54:02.171Z,32.02
2018-07-01T10:56:30.511Z,32.54
2018-07-01T10:58:58.856Z,30.01
2018-07-01T11:01:27.279Z,30.12
2018-07-01T11:03:55.693Z,28.11
2018-07-01T11:06:24.400Z,27.72
2018-07-01T11:08:52.790Z,28.44
2018-07-01T11:11:21.182Z,28.29
2018-07-01T11:13:49.511Z,27.94
2018-07-01T11:16:17.931Z,27.10
2018-07-01T11:18:46.307Z,26.26
2018-07-01T11:21:15.325Z,25.56
2018-07-01T11:23:43.741Z,27.13
2018-07-01T11:26:12.151Z,26.24
2018-07-01T11:28:40.480Z,24.64
2018-07-01T11:31:08.892Z,25.10
2018-07-01T11:33:37.227Z,24.59
2018-07-01T11:36:05.578Z,24.92
2018-07-01T11:38:33.934Z,25.70
2018-07-01T11:41:02.328Z,24.74
2018-07-01T11:43:30.735Z,26.04
2018-07-01T11:45:59.151Z,25.83
2018-07-01T11:48:27.629Z,25.41
2018-07-01T11:50:55.991Z,24.99
2018-07-01T11:53:24.318Z,24.78
2018-07-01T11:55:52.671Z,24.34
2018-07-01T11:58:21.009Z,24.51
2018-07-01T12:00:49.323Z,24.02
2018-07-01T12:03:17.739Z,23.55
2018-07-01T12:05:46.055Z,23.38
2018-07-01T12:08:14.431Z,22.19
2018-07-01T12:10:42.791Z,22.21
2018-07-01T12:13:11.185Z,23.22
2018-07-01T12:15:39.755Z,22.90
2018-07-01T12:18:08.160Z,22.15
2018-07-01T12:20:36.494Z,23.09
2018-07-01T12:23:04.927Z,22.57
2018-07-01T12:25:33.308Z,23.58
2018-07-01T12:28:01.707Z,23.05
2018-07-01T12:30:30.140Z,22.35
2018-07-01T12:32:58.497Z,21.63
2018-07-01T12:35:26.799Z,20.25
2018-07-01T12:37:55.139Z,21.52
2018-07-01T12:40:23.859Z,22.78
2018-07-01T12:42:52.257Z,23.01
2018-07-01T12:45:20.612Z,20.71
2018-07-01T12:47:48.917Z,20.84
2018-07-01T12:50:17.294Z,20.64
2018-07-01T12:52:45.645Z,21.23
2018-07-01T12:55:14.128Z,22.37
2018-07-01T12:57:42.503Z,21.01
2018-07-01T13:00:10.867Z,21.10
2018-07-01T13:02:39.176Z,20.81
2018-07-01T13:05:07.531Z,20.55
2018-07-01T13:07:35.952Z,21.20
2018-07-01T13:10:04.401Z,20.51
2018-07-01T13:12:32.799Z,20.95
2018-07-01T13:15:01.202Z,21.93
2018-07-01T13:17:29.526Z,19.92
2018-07-01T13:19:57.983Z,21.17
2018-07-01T13:22:26.512Z,21.63
2018-07-01T13:24:55.352Z,21.75
2018-07-01T13:27:23.703Z,21.29
2018-07-01T13:29:52.666Z,18.97
2018-07-01T13:32:21.070Z,20.06
2018-07-01T13:34:49.401Z,21.13
2018-07-01T13:37:17.703Z,21.69
2018-07-01T13:39:46.003Z,21.94
2018-07-01T13:42:14.427Z,20.84
2018-07-01T13:44:42.815Z,19.81
2018-07-01T13:47:11.593Z,21.41
2018-07-01T13:49:40.060Z,21.70
2018-07-01T13:52:08.399Z,19.94
2018-07-01T13:54:36.854Z,20.65
2018-07-01T13:57:05.320Z,20.81
2018-07-01T13:59:33.756Z,21.35
2018-07-01T14:02:02.068Z,18.35
2018-07-01T14:04:30.462Z,20.22
2018-07-01T14:06:58.839Z,22.53
2018-07-01T14:09:27.236Z,21.86
2018-07-01T14:11:55.616Z,20.58
2018-07-01T14:14:24.035Z,22.04
2018-07-01T14:16:52.351Z,21.58
2018-07-01T14:19:20.686Z,22.94
2018-07-01T14:21:49.072Z,21.73
2018-07-01T14:24:17.803Z,20.92
2018-07-01T14:26:46.144Z,20.36
2018-07-01T14:29:14.480Z,21.36
2018-07-01T14:31:42.996Z,21.44
2018-07-01T14:34:11.377Z,22.63
2018-07-01T14:36:39.723Z,22.48
2018-07-01T14:39:10.179Z,22.33
2018-07-01T14:41:38.559Z,21.36
2018-07-01T14:44:07.076Z,20.86
2018-07-01T14:46:35.927Z,21.16
2018-07-01T14:49:04.372Z,20.19
2018-07-01T14:51:33.017Z,21.02
2018-07-01T14:54:01.691Z,20.96
2018-07-01T14:56:30.122Z,20.77
2018-07-01T14:58:58.503Z,20.95
2018-07-01T15:01:26.896Z,19.06
2018-07-01T15:03:55.272Z,20.95
2018-07-01T15:06:23.644Z,21.15
2018-07-01T15:08:52.003Z,21.60
2018-07-01T15:11:20.495Z,22.53
2018-07-01T15:13:48.883Z,20.59
2018-07-01T15:16:17.271Z,22.24
2018-07-01T15:18:45.632Z,22.78
2018-07-01T15:21:13.992Z,22.07
2018-07-01T15:23:42.372Z,22.62
2018-07-01T15:26:10.732Z,22.53
2018-07-01T15:28:39.207Z,22.57
2018-07-01T15:31:08.012Z,22.04
2018-07-01T15:33:36.392Z,22.28
2018-07-01T15:36:04.756Z,21.95
2018-07-01T15:38:33.180Z,22.24
2018-07-01T15:41:01.511Z,22.82
2018-07-01T15:43:29.916Z,23.96
2018-07-01T15:45:58.319Z,23.25
2018-07-01T15:48:26.775Z,23.43
2018-07-01T15:50:55.232Z,22.14
2018-07-01T15:53:23.603Z,21.32
2018-07-01T15:55:51.947Z,22.21
2018-07-01T15:58:20.280Z,21.76
2018-07-01T16:00:48.619Z,21.63
2018-07-01T16:03:17.179Z,21.22
2018-07-01T16:05:45.493Z,20.97
2018-07-01T16:08:13.863Z,21.19
2018-07-01T16:10:42.269Z,20.47
2018-07-01T16:13:10.727Z,20.40
2018-07-01T16:15:39.251Z,19.20
2018-07-01T16:18:07.592Z,18.48
2018-07-01T16:20:35.911Z,18.45
2018-07-01T16:23:04.300Z,16.83
2018-07-01T16:25:38.158Z,17.21
2018-07-01T16:29:14.566Z,17.97
2018-07-01T16:31:43.069Z,17.54
2018-07-01T16:34:11.510Z,16.39
2018-07-01T16:36:39.892Z,15.55
2018-07-01T16:39:11.120Z,13.68
2018-07-01T16:41:39.697Z,16.20
2018-07-01T16:44:08.199Z,14.65
2018-07-01T16:46:36.571Z,16.48
2018-07-01T16:49:05.055Z,16.45
2018-07-01T16:51:33.479Z,16.52
2018-07-01T16:54:02.083Z,16.61
2018-07-01T16:56:30.417Z,16.13
2018-07-01T16:58:58.863Z,16.51
2018-07-01T17:01:27.173Z,16.07
2018-07-01T17:03:55.576Z,16.81
2018-07-01T17:06:24.004Z,15.04
2018-07-01T17:08:52.365Z,16.08
2018-07-01T17:11:20.763Z,16.65
2018-07-01T17:13:49.132Z,15.94
2018-07-01T17:16:17.999Z,18.31
2018-07-01T17:18:46.389Z,18.18
2018-07-01T17:21:14.770Z,19.24
2018-07-01T17:23:43.159Z,18.66
2018-07-01T17:26:11.534Z,18.68
2018-07-01T17:28:39.848Z,18.82
2018-07-01T17:31:13.389Z,19.84
2018-07-01T17:33:41.792Z,19.36
2018-07-01T17:36:10.265Z,20.89
2018-07-01T17:38:38.728Z,20.68
2018-07-01T17:41:07.080Z,20.44
2018-07-01T17:43:36.356Z,20.23
2018-07-01T17:46:05.663Z,21.37
2018-07-01T17:48:34.311Z,21.04
2018-07-01T17:51:02.588Z,21.45
2018-07-01T17:53:42.310Z,21.46
2018-07-01T17:56:10.707Z,23.15
2018-07-01T17:58:38.990Z,21.92
2018-07-01T18:01:07.395Z,23.03
2018-07-01T18:03:35.774Z,22.72
2018-07-01T18:06:04.400Z,23.95
2018-07-01T18:08:32.762Z,22.50
2018-07-01T18:11:01.146Z,22.41
2018-07-01T18:13:29.451Z,23.08
2018-07-01T18:15:58.472Z,21.57
2018-07-01T18:18:26.906Z,22.84
2018-07-01T18:20:55.284Z,23.18
2018-07-01T18:23:53.708Z,22.82
2018-07-01T18:25:51.947Z,22.96
2018-07-01T18:28:34.107Z,23.72
2018-07-01T18:30:48.617Z,22.98
2018-07-01T18:33:16.974Z,23.96
2018-07-01T18:35:45.435Z,23.71
2018-07-01T18:38:13.823Z,23.83
2018-07-01T18:40:42.158Z,23.87
2018-07-01T18:43:10.524Z,23.79
2018-07-01T18:45:38.887Z,24.04
2018-07-01T18:48:08.679Z,24.60
2018-07-01T18:50:37.102Z,25.03
2018-07-01T18:53:05.649Z,25.38
2018-07-01T18:55:33.964Z,25.55
2018-07-01T18:58:02.769Z,25.88
2018-07-01T19:00:31.175Z,25.03
2018-07-01T19:02:59.692Z,25.99
2018-07-01T19:05:28.780Z,25.77
2018-07-01T19:07:57.180Z,26.05
2018-07-01T19:10:25.522Z,25.52
2018-07-01T19:12:53.871Z,25.65
2018-07-01T19:15:22.295Z,26.35
2018-07-01T19:17:50.658Z,26.49
2018-07-01T19:20:19.012Z,27.17
2018-07-01T19:22:47.345Z,27.60
2018-07-01T19:25:15.723Z,27.72
2018-07-01T19:27:44.085Z,27.68
2018-07-01T19:30:12.459Z,27.49
2018-07-01T19:32:42.169Z,27.57
2018-07-01T19:35:10.579Z,27.00
2018-07-01T19:37:39.910Z,26.84
2018-07-01T19:40:08.253Z,26.81
2018-07-01T19:42:36.593Z,27.09
2018-07-01T19:45:05.449Z,26.90
2018-07-01T19:47:33.752Z,27.54
2018-07-01T19:50:02.177Z,27.30
2018-07-01T19:52:30.582Z,28.42
2018-07-01T19:54:58.895Z,28.27
2018-07-01T19:57:27.647Z,28.49
2018-07-01T19:59:55.967Z,27.85
2018-07-01T20:02:24.282Z,28.98
2018-07-01T20:04:52.574Z,28.52
2018-07-01T20:07:21.024Z,28.73
2018-07-01T20:09:49.336Z,28.56
2018-07-01T20:12:17.675Z,28.05
2018-07-01T20:14:46.035Z,28.53
2018-07-01T20:17:14.600Z,27.97
2018-07-01T20:19:43.356Z,28.00
2018-07-01T20:22:12.107Z,28.23
2018-07-01T20:24:40.529Z,28.39
2018-07-01T20:27:08.892Z,28.87
2018-07-01T20:29:37.186Z,28.91
2018-07-01T20:32:05.696Z,28.70
2018-07-01T20:34:34.225Z,29.46
2018-07-01T20:37:02.888Z,29.85
2018-07-01T20:39:31.397Z,29.76
2018-07-01T20:41:59.735Z,29.70
2018-07-01T20:44:28.056Z,29.78
2018-07-01T20:46:56.792Z,29.73
2018-07-01T20:49:25.372Z,30.42
2018-07-01T20:51:53.801Z,30.20
2018-07-01T20:54:22.966Z,30.02
2018-07-01T20:56:51.297Z,30.30
2018-07-01T20:59:19.673Z,30.36
2018-07-01T21:01:48.042Z,30.43
2018-07-01T21:04:16.378Z,30.27
2018-07-01T21:06:44.667Z,30.06
2018-07-01T21:09:12.986Z,29.89
2018-07-01T21:11:41.323Z,30.12
2018-07-01T21:14:09.651Z,30.52
2018-07-01T21:16:37.969Z,30.57
2018-07-01T21:19:06.326Z,30.18
2018-07-01T21:21:34.986Z,29.91
2018-07-01T21:24:03.300Z,29.76
2018-07-01T21:26:31.640Z,30.04
2018-07-01T21:28:59.964Z,30.17
2018-07-01T21:31:28.343Z,30.28
2018-07-01T21:33:56.712Z,29.83
2018-07-01T21:36:25.043Z,29.86
2018-07-01T21:38:53.408Z,28.77
2018-07-01T21:41:21.822Z,29.52
2018-07-01T21:43:50.235Z,29.33
2018-07-01T21:46:18.579Z,29.92
2018-07-01T21:48:46.883Z,29.73
2018-07-01T21:51:15.247Z,28.91
2018-07-01T21:53:43.579Z,28.21
2018-07-01T21:56:11.920Z,29.15
2018-07-01T21:58:40.261Z,28.32
2018-07-01T22:01:09.700Z,29.79
2018-07-01T22:03:38.072Z,29.37
2018-07-01T22:06:09.143Z,28.37
2018-07-01T22:08:38.243Z,28.39
2018-07-01T22:11:49.224Z,28.30
2018-07-01T22:14:24.068Z,28.64
2018-07-01T22:16:52.412Z,28.17
2018-07-01T22:19:21.209Z,29.10
2018-07-01T22:21:50.649Z,29.50
2018-07-01T22:24:19.051Z,29.80
2018-07-01T22:26:47.433Z,29.30
2018-07-01T22:29:16.779Z,28.71
2018-07-01T22:31:45.119Z,28.86
2018-07-01T22:34:15.573Z,29.75
2018-07-01T22:36:44.679Z,28.92
2018-07-01T22:39:29.803Z,28.95
2018-07-01T22:41:59.360Z,30.05
2018-07-01T22:44:28.019Z,29.59
2018-07-01T22:46:56.378Z,29.65
2018-07-01T22:49:24.720Z,28.91
2018-07-01T22:51:53.207Z,30.12
2018-07-01T22:54:21.599Z,29.90
2018-07-01T22:56:50.005Z,29.32
2018-07-01T22:59:18.370Z,29.27
2018-07-01T23:03:00.037Z,29.73
2018-07-01T23:05:28.468Z,30.03
2018-07-01T23:07:56.841Z,29.22
2018-07-01T23:10:26.385Z,29.82
2018-07-01T23:12:55.446Z,29.66
2018-07-01T23:15:23.888Z,29.47
2018-07-01T23:17:52.332Z,30.50
2018-07-01T23:20:20.693Z,30.75
2018-07-01T23:22:49.067Z,30.47
2018-07-01T23:25:17.455Z,30.55
2018-07-01T23:27:46.450Z,30.37
2018-07-01T23:30:14.781Z,30.60
2018-07-01T23:32:43.520Z,30.09
2018-07-01T23:35:11.899Z,30.68
2018-07-01T23:37:40.579Z,30.51
2018-07-01T23:40:09.808Z,31.49
2018-07-01T23:42:38.285Z,31.31
2018-07-01T23:45:08.331Z,30.73
2018-07-01T23:47:36.711Z,31.00
2018-07-01T23:50:05.874Z,31.85
2018-07-01T23:52:34.278Z,30.50
2018-07-01T23:55:02.660Z,30.01
2018-07-01T23:57:31.059Z,31.54
2018-07-01T23:59:59.497Z,30.56
